createdAt,value
2023-01-20T00:01:37.326Z,7.55
2023-01-20T00:04:04.992Z,8.18
2023-01-20T00:06:32.556Z,8.70
2023-01-20T00:09:00.926Z,8.25
2023-01-20T00:11:28.475Z,8.13
2023-01-20T00:14:02.371Z,8.57
2023-01-20T00:16:31.038Z,8.68
2023-01-20T00:18:58.377Z,8.20
2023-01-20T00:21:25.707Z,8.68
2023-01-20T00:23:53.044Z,8.63
2023-01-20T00:26:21.688Z,8.32
2023-01-20T00:28:49.185Z,9.18
2023-01-20T00:31:20.249Z,8.95
2023-01-20T00:33:48.219Z,8.48
2023-01-20T00:36:16.255Z,8.48
2023-01-20T00:38:43.613Z,8.82
2023-01-20T00:41:10.924Z,8.93
2023-01-20T00:43:38.459Z,9.38
2023-01-20T00:46:05.838Z,9.40
2023-01-20T00:48:33.636Z,9.20
2023-01-20T00:51:01.306Z,9.25
2023-01-20T00:53:28.698Z,9.77
2023-01-20T00:55:56.094Z,9.48
2023-01-20T00:58:23.646Z,9.43
2023-01-20T01:00:51.779Z,8.55
2023-01-20T01:03:19.148Z,9.48
2023-01-20T01:05:46.486Z,9.13
2023-01-20T01:08:13.864Z,9.23
2023-01-20T01:10:41.458Z,9.50
2023-01-20T01:13:08.814Z,9.20
2023-01-20T01:15:36.367Z,9.55
2023-01-20T01:18:04.012Z,9.85
2023-01-20T01:20:31.327Z,9.85
2023-01-20T01:22:58.655Z,9.93
2023-01-20T01:25:26.000Z,9.63
2023-01-20T01:27:53.267Z,9.68
2023-01-20T01:30:20.705Z,10.27
2023-01-20T01:32:47.988Z,9.80
2023-01-20T01:35:15.534Z,9.30
2023-01-20T01:37:43.062Z,10.02
2023-01-20T01:40:10.922Z,9.40
2023-01-20T01:42:38.259Z,10.07
2023-01-20T01:45:11.893Z,9.60
2023-01-20T01:50:28.251Z,9.65
2023-01-20T01:52:56.095Z,9.85
2023-01-20T01:55:26.696Z,9.02
2023-01-20T01:57:54.077Z,9.90
2023-01-20T02:00:21.571Z,9.13
2023-01-20T02:02:48.877Z,9.38
2023-01-20T02:05:16.675Z,8.98
2023-01-20T02:07:45.416Z,9.05
2023-01-20T02:10:13.135Z,9.82
2023-01-20T02:12:41.012Z,9.35
2023-01-20T02:15:08.703Z,9.60
2023-01-20T02:18:06.154Z,8.90
2023-01-20T02:20:46.784Z,9.68
2023-01-20T02:24:09.670Z,9.55
2023-01-20T02:27:02.655Z,9.35
2023-01-20T02:30:09.134Z,8.93
2023-01-20T02:32:47.647Z,9.30
2023-01-20T02:35:35.547Z,8.95
2023-01-20T02:38:44.023Z,8.98
2023-01-20T02:41:20.739Z,8.90
2023-01-20T02:43:48.108Z,9.55
2023-01-20T02:46:25.601Z,9.43
2023-01-20T02:48:54.869Z,9.40
2023-01-20T02:51:25.935Z,10.48
2023-01-20T02:54:02.595Z,9.55
2023-01-20T02:56:30.134Z,9.35
2023-01-20T02:59:03.271Z,9.43
2023-01-20T03:01:34.026Z,10.03
2023-01-20T03:04:01.945Z,8.93
2023-01-20T03:06:32.416Z,9.18
2023-01-20T03:09:00.999Z,9.45
2023-01-20T03:11:29.345Z,8.95
2023-01-20T03:14:06.424Z,9.77
2023-01-20T03:16:33.895Z,10.05
2023-01-20T03:19:01.207Z,6.82
2023-01-20T03:21:28.507Z,9.13
2023-01-20T03:23:57.921Z,7.93
2023-01-20T03:26:25.265Z,8.00
2023-01-20T03:28:54.495Z,8.15
2023-01-20T03:31:26.467Z,8.30
2023-01-20T03:33:55.215Z,7.93
2023-01-20T03:36:23.720Z,7.32
2023-01-20T03:38:51.059Z,7.47
2023-01-20T03:41:33.188Z,7.00
2023-01-20T03:44:26.812Z,6.68
2023-01-20T03:47:12.769Z,7.72
2023-01-20T03:49:58.901Z,7.63
2023-01-20T03:52:47.224Z,7.78
2023-01-20T03:55:20.587Z,7.20
2023-01-20T03:57:59.344Z,7.32
2023-01-20T04:00:26.688Z,7.32
2023-01-20T04:02:57.213Z,7.32
2023-01-20T04:05:24.548Z,8.40
2023-01-20T04:07:51.851Z,8.00
2023-01-20T04:10:19.212Z,8.93
2023-01-20T04:12:46.554Z,7.03
2023-01-20T04:15:14.275Z,6.95
2023-01-20T04:17:41.722Z,7.35
2023-01-20T04:20:10.847Z,7.30
2023-01-20T04:22:43.279Z,7.53
2023-01-20T04:25:17.540Z,7.50
2023-01-20T04:27:44.812Z,7.15
2023-01-20T04:30:13.733Z,7.30
2023-01-20T04:32:41.076Z,7.60
2023-01-20T04:35:13.218Z,7.65
2023-01-20T04:37:40.858Z,8.38
2023-01-20T04:40:09.402Z,8.30
2023-01-20T04:42:37.069Z,8.60
2023-01-20T04:45:04.720Z,8.85
2023-01-20T04:47:32.727Z,9.75
2023-01-20T04:50:00.193Z,9.65
2023-01-20T04:52:27.567Z,8.85
2023-01-20T04:54:54.853Z,9.85
2023-01-20T04:57:22.164Z,10.52
2023-01-20T04:59:49.949Z,10.30
2023-01-20T05:02:17.342Z,11.20
2023-01-20T05:04:45.321Z,10.90
2023-01-20T05:07:12.621Z,11.43
2023-01-20T05:09:40.102Z,12.02
2023-01-20T05:12:07.575Z,11.35
2023-01-20T05:14:34.901Z,12.48
2023-01-20T05:17:02.248Z,13.43
2023-01-20T05:19:29.748Z,13.27
2023-01-20T05:21:57.087Z,12.52
2023-01-20T05:24:24.695Z,13.07
2023-01-20T05:26:52.128Z,13.00
2023-01-20T05:29:19.449Z,12.65
2023-01-20T05:31:46.769Z,12.82
2023-01-20T05:34:14.234Z,12.73
2023-01-20T05:36:41.535Z,12.75
2023-01-20T05:39:08.853Z,12.55
2023-01-20T05:41:36.169Z,13.13
2023-01-20T05:44:03.525Z,13.27
2023-01-20T05:46:30.855Z,14.18
2023-01-20T05:48:58.256Z,14.00
2023-01-20T05:51:25.649Z,13.95
2023-01-20T05:53:52.994Z,14.57
2023-01-20T05:56:20.335Z,14.23
2023-01-20T05:58:47.771Z,14.60
2023-01-20T06:01:15.196Z,14.18
2023-01-20T06:03:42.794Z,12.90
2023-01-20T06:06:14.277Z,11.82
2023-01-20T06:08:41.934Z,9.25
2023-01-20T06:11:09.603Z,10.07
2023-01-20T06:13:36.992Z,10.13
2023-01-20T06:16:07.092Z,10.05
2023-01-20T06:18:34.829Z,10.52
2023-01-20T06:21:02.150Z,11.02
2023-01-20T06:23:29.469Z,10.27
2023-01-20T06:26:03.764Z,10.70
2023-01-20T06:28:32.868Z,11.32
2023-01-20T06:31:07.820Z,10.60
2023-01-20T06:33:35.253Z,11.35
2023-01-20T06:36:02.693Z,10.70
2023-01-20T06:38:31.733Z,12.43
2023-01-20T06:41:00.100Z,11.88
2023-01-20T06:43:31.112Z,12.10
2023-01-20T06:46:01.990Z,12.02
2023-01-20T06:48:29.464Z,11.55
2023-01-20T06:51:07.550Z,11.80
2023-01-20T06:53:34.859Z,11.77
2023-01-20T06:56:02.488Z,11.73
2023-01-20T06:58:31.191Z,11.60
2023-01-20T07:00:59.147Z,11.75
2023-01-20T07:03:26.467Z,11.70
2023-01-20T07:06:15.193Z,11.73
2023-01-20T07:08:43.877Z,12.07
2023-01-20T07:11:11.261Z,12.90
2023-01-20T07:13:38.659Z,12.23
2023-01-20T07:16:06.473Z,12.50
2023-01-20T07:18:34.763Z,13.00
2023-01-20T07:21:03.005Z,12.68
2023-01-20T07:23:45.831Z,12.73
2023-01-20T07:26:15.037Z,13.18
2023-01-20T07:28:42.478Z,12.68
2023-01-20T07:31:11.455Z,13.27
2023-01-20T07:33:38.804Z,12.70
2023-01-20T07:36:07.263Z,14.95
2023-01-20T07:38:34.687Z,14.00
2023-01-20T07:41:05.100Z,13.30
2023-01-20T07:43:32.648Z,14.07
2023-01-20T07:46:01.065Z,13.98
2023-01-20T07:48:29.699Z,14.00
2023-01-20T07:51:05.603Z,12.70
2023-01-20T07:53:37.749Z,13.15
2023-01-20T07:56:13.381Z,13.40
2023-01-20T07:58:40.707Z,13.60
2023-01-20T08:01:10.480Z,12.38
2023-01-20T08:03:37.841Z,12.38
2023-01-20T08:06:06.317Z,12.90
2023-01-20T08:08:33.859Z,13.23
2023-01-20T08:11:01.560Z,13.10
2023-01-20T08:13:29.319Z,12.70
2023-01-20T08:15:59.170Z,13.13
2023-01-20T08:18:26.688Z,13.85
2023-01-20T08:20:53.968Z,13.52
2023-01-20T08:23:21.299Z,13.57
2023-01-20T08:25:48.575Z,13.15
2023-01-20T08:28:15.882Z,12.80
2023-01-20T08:30:43.230Z,12.88
2023-01-20T08:33:10.541Z,12.63
2023-01-20T08:35:38.089Z,13.38
2023-01-20T08:38:06.738Z,13.32
2023-01-20T08:40:34.274Z,13.07
2023-01-20T08:43:01.861Z,12.60
2023-01-20T08:45:29.169Z,12.52
2023-01-20T08:47:56.522Z,12.20
2023-01-20T08:50:24.549Z,12.45
2023-01-20T08:52:51.861Z,12.52
2023-01-20T08:55:19.851Z,14.50
2023-01-20T08:57:47.203Z,12.73
2023-01-20T09:00:15.141Z,11.93
2023-01-20T09:02:42.458Z,11.95
2023-01-20T09:05:10.355Z,12.70
2023-01-20T09:07:37.625Z,12.80
2023-01-20T09:10:05.483Z,13.30
2023-01-20T09:12:32.857Z,12.73
2023-01-20T09:15:00.208Z,13.00
2023-01-20T09:17:27.482Z,11.45
2023-01-20T09:19:54.789Z,12.48
2023-01-20T09:22:22.061Z,12.40
2023-01-20T09:24:49.381Z,12.48
2023-01-20T09:27:16.723Z,13.27
2023-01-20T09:29:44.034Z,12.50
2023-01-20T09:32:11.510Z,11.45
2023-01-20T09:34:39.461Z,11.43
2023-01-20T09:37:25.260Z,11.70
2023-01-20T09:40:11.281Z,11.77
2023-01-20T09:43:17.304Z,11.40
2023-01-20T09:45:48.861Z,11.75
2023-01-20T09:48:56.507Z,11.80
2023-01-20T09:51:47.116Z,11.45
2023-01-20T09:54:23.320Z,11.75
2023-01-20T09:56:50.687Z,11.52
2023-01-20T09:59:40.604Z,10.90
2023-01-20T10:02:13.717Z,10.85
2023-01-20T10:04:43.207Z,10.50
2023-01-20T10:07:24.671Z,11.38
2023-01-20T10:10:19.570Z,10.00
2023-01-20T10:13:07.232Z,10.38
2023-01-20T10:15:37.722Z,10.43
2023-01-20T10:18:16.763Z,10.50
2023-01-20T10:20:51.004Z,9.25
2023-01-20T10:23:29.493Z,9.57
2023-01-20T10:26:09.243Z,9.60
2023-01-20T10:28:58.092Z,8.13
2023-01-20T10:31:31.168Z,8.77
2023-01-20T10:34:18.693Z,7.30
2023-01-20T10:36:50.535Z,7.50
2023-01-20T10:39:28.132Z,9.93
2023-01-20T10:42:04.257Z,7.55
2023-01-20T10:44:35.649Z,6.97
2023-01-20T10:47:47.236Z,7.25
2023-01-20T10:50:33.853Z,17.65
2023-01-20T10:53:13.356Z,7.47
2023-01-20T10:55:49.833Z,7.32
2023-01-20T10:58:26.314Z,7.20
2023-01-20T11:00:53.645Z,5.70
2023-01-20T11:03:22.287Z,5.35
2023-01-20T11:05:50.751Z,4.78
2023-01-20T11:08:20.383Z,4.53
2023-01-20T11:10:49.235Z,4.60
2023-01-20T11:13:16.986Z,5.05
2023-01-20T11:15:50.142Z,5.40
2023-01-20T11:18:17.518Z,6.10
2023-01-20T11:20:50.338Z,5.90
2023-01-20T11:23:38.256Z,6.00
2023-01-20T11:26:32.635Z,5.97
2023-01-20T11:31:53.506Z,6.90
2023-01-20T11:34:23.661Z,6.25
2023-01-20T11:36:51.828Z,6.68
2023-01-20T11:39:30.805Z,6.03
2023-01-20T11:42:14.933Z,6.93
2023-01-20T11:44:51.340Z,7.53
2023-01-20T11:47:25.785Z,8.07
2023-01-20T11:50:09.401Z,7.38
2023-01-20T11:52:44.215Z,8.13
2023-01-20T11:55:23.462Z,9.55
2023-01-20T11:57:54.642Z,8.40
2023-01-20T12:00:43.392Z,9.38
2023-01-20T12:03:10.804Z,9.30
2023-01-20T12:05:43.963Z,9.23
2023-01-20T12:08:17.160Z,9.37
2023-01-20T12:10:44.603Z,9.23
2023-01-20T12:13:15.025Z,9.73
2023-01-20T12:15:44.109Z,10.30
2023-01-20T12:18:56.936Z,12.88
2023-01-20T12:21:34.307Z,9.98
2023-01-20T12:24:19.302Z,22.23
2023-01-20T12:26:46.667Z,11.85
2023-01-20T12:29:22.457Z,11.93
2023-01-20T12:31:49.905Z,11.48
2023-01-20T12:34:21.606Z,11.48
2023-01-20T12:37:21.261Z,11.30
2023-01-20T12:40:26.404Z,12.45
2023-01-20T12:43:18.620Z,11.95
2023-01-20T12:45:59.543Z,12.13
2023-01-20T12:49:11.386Z,13.38
2023-01-20T12:52:18.752Z,13.90
2023-01-20T12:54:55.009Z,14.05
2023-01-20T12:57:36.357Z,14.45
2023-01-20T13:00:14.255Z,14.73
2023-01-20T13:02:54.136Z,16.48
2023-01-20T13:05:33.515Z,16.33
2023-01-20T13:08:12.822Z,16.48
2023-01-20T13:11:10.739Z,17.58
2023-01-20T13:14:15.650Z,17.05
2023-01-20T13:16:43.113Z,16.90
2023-01-20T13:19:29.999Z,17.55
2023-01-20T13:22:07.696Z,17.52
2023-01-20T13:24:35.652Z,18.23
2023-01-20T13:27:03.083Z,17.73
2023-01-20T13:29:36.642Z,18.75
2023-01-20T13:32:04.782Z,17.25
2023-01-20T13:34:33.510Z,18.52
2023-01-20T13:37:03.850Z,19.45
2023-01-20T13:39:47.040Z,19.15
2023-01-20T13:42:36.444Z,19.80
2023-01-20T13:45:13.320Z,18.20
2023-01-20T13:48:06.371Z,18.90
2023-01-20T13:50:35.034Z,18.92
2023-01-20T13:53:12.114Z,19.67
2023-01-20T13:55:45.419Z,18.52
2023-01-20T13:58:24.499Z,19.23
2023-01-20T14:00:53.996Z,19.20
2023-01-20T14:03:23.268Z,20.50
2023-01-20T14:05:54.382Z,20.77
2023-01-20T14:08:22.298Z,20.48
2023-01-20T14:10:49.673Z,20.30
2023-01-20T14:13:20.438Z,19.90
2023-01-20T14:15:52.879Z,19.48
2023-01-20T14:18:23.999Z,20.33
2023-01-20T14:21:04.161Z,20.83
2023-01-20T14:23:34.440Z,19.75
2023-01-20T14:26:05.812Z,20.50
2023-01-20T14:28:33.301Z,19.95
2023-01-20T14:31:34.381Z,19.80
2023-01-20T14:34:21.488Z,20.15
2023-01-20T14:36:48.956Z,21.20
2023-01-20T14:39:21.080Z,21.75
2023-01-20T14:41:53.327Z,21.40
2023-01-20T14:44:25.376Z,20.60
2023-01-20T14:46:54.449Z,20.63
2023-01-20T14:49:22.722Z,21.15
2023-01-20T14:51:50.872Z,20.60
2023-01-20T14:54:38.317Z,20.45
2023-01-20T14:57:28.842Z,20.85
2023-01-20T15:00:01.361Z,22.33
2023-01-20T15:02:33.894Z,21.67
2023-01-20T15:05:01.453Z,22.70
2023-01-20T15:07:28.795Z,20.85
2023-01-20T15:10:08.382Z,22.17
2023-01-20T15:12:44.937Z,20.50
2023-01-20T15:15:31.993Z,21.10
2023-01-20T15:18:11.583Z,22.13
2023-01-20T15:20:43.667Z,21.60
2023-01-20T15:23:18.335Z,21.75
2023-01-20T15:25:45.758Z,20.55
2023-01-20T15:28:42.938Z,21.40
2023-01-20T15:31:13.963Z,21.80
2023-01-20T15:33:41.434Z,22.20
2023-01-20T15:36:37.089Z,21.60
2023-01-20T15:39:06.004Z,21.83
2023-01-20T15:41:33.292Z,21.33
2023-01-20T15:44:00.653Z,21.25
2023-01-20T15:46:27.974Z,20.83
2023-01-20T15:48:55.313Z,20.63
2023-01-20T15:51:22.688Z,21.17
2023-01-20T15:53:50.280Z,21.10
2023-01-20T15:56:22.715Z,22.08
2023-01-20T15:58:50.285Z,21.42
2023-01-20T16:01:24.012Z,20.55
2023-01-20T16:03:52.583Z,21.10
2023-01-20T16:06:20.180Z,20.95
2023-01-20T16:08:48.833Z,21.48
2023-01-20T16:11:17.302Z,22.50
2023-01-20T16:13:44.878Z,21.40
2023-01-20T16:16:23.430Z,20.75
2023-01-20T16:18:50.846Z,21.77
2023-01-20T16:21:20.441Z,19.77
2023-01-20T16:23:47.815Z,21.85
2023-01-20T16:26:27.009Z,21.98
2023-01-20T16:28:56.052Z,21.52
2023-01-20T16:31:23.971Z,22.13
2023-01-20T16:33:53.416Z,21.77
2023-01-20T16:36:24.278Z,21.13
2023-01-20T16:38:51.947Z,21.02
2023-01-20T16:41:23.631Z,21.98
2023-01-20T16:43:52.052Z,20.77
2023-01-20T16:46:23.831Z,21.15
2023-01-20T16:48:51.431Z,21.58
2023-01-20T16:51:22.731Z,20.90
2023-01-20T16:53:50.182Z,19.58
2023-01-20T16:56:19.637Z,21.52
2023-01-20T16:58:50.047Z,20.80
2023-01-20T17:01:22.039Z,22.05
2023-01-20T17:03:49.831Z,21.50
2023-01-20T17:06:19.126Z,23.70
2023-01-20T17:08:47.377Z,21.10
2023-01-20T17:11:18.796Z,22.05
2023-01-20T17:13:46.521Z,23.98
2023-01-20T17:16:14.041Z,21.63
2023-01-20T17:18:47.525Z,21.50
2023-01-20T17:21:15.077Z,21.60
2023-01-20T17:23:42.497Z,20.52
2023-01-20T17:26:09.897Z,21.95
2023-01-20T17:28:37.362Z,20.70
2023-01-20T17:31:06.276Z,21.67
2023-01-20T17:33:33.882Z,21.92
2023-01-20T17:36:03.077Z,20.95
2023-01-20T17:38:31.180Z,20.45
2023-01-20T17:41:02.566Z,20.33
2023-01-20T17:43:33.734Z,19.88
2023-01-20T17:46:01.230Z,20.70
2023-01-20T17:48:28.687Z,21.55
2023-01-20T17:50:59.178Z,20.73
2023-01-20T17:53:26.922Z,21.08
2023-01-20T17:56:06.772Z,21.70
2023-01-20T17:58:39.178Z,22.20
2023-01-20T18:01:19.872Z,21.58
2023-01-20T18:03:48.663Z,20.70
2023-01-20T18:06:16.848Z,21.38
2023-01-20T18:08:44.392Z,20.60
2023-01-20T18:11:21.787Z,21.40
2023-01-20T18:13:50.442Z,21.73
2023-01-20T18:16:18.935Z,21.00
2023-01-20T18:18:47.049Z,22.15
2023-01-20T18:21:22.252Z,21.23
2023-01-20T18:23:50.068Z,21.60
2023-01-20T18:26:21.840Z,20.52
2023-01-20T18:28:49.371Z,21.25
2023-01-20T18:31:18.181Z,19.50
2023-01-20T18:33:51.464Z,23.15
2023-01-20T18:36:23.470Z,21.57
2023-01-20T18:38:58.029Z,22.55
2023-01-20T18:41:26.026Z,21.17
2023-01-20T18:43:53.524Z,21.70
2023-01-20T18:46:20.995Z,21.77
2023-01-20T18:48:49.043Z,22.55
2023-01-20T18:51:17.933Z,21.67
2023-01-20T18:53:45.457Z,23.05
2023-01-20T18:56:14.946Z,21.90
2023-01-20T18:58:46.959Z,22.48
2023-01-20T19:01:18.063Z,23.35
2023-01-20T19:03:46.332Z,20.33
2023-01-20T19:06:15.819Z,20.65
2023-01-20T19:08:43.975Z,21.85
2023-01-20T19:11:17.591Z,21.50
2023-01-20T19:13:46.382Z,21.27
2023-01-20T19:16:13.889Z,21.38
2023-01-20T19:18:41.599Z,21.38
2023-01-20T19:21:11.052Z,21.75
2023-01-20T19:23:38.519Z,21.73
2023-01-20T19:26:08.200Z,20.40
2023-01-20T19:28:35.709Z,20.25
2023-01-20T19:31:18.458Z,20.55
2023-01-20T19:33:46.495Z,20.08
2023-01-20T19:36:15.025Z,20.33
2023-01-20T19:38:42.779Z,19.85
2023-01-20T19:41:15.037Z,21.52
2023-01-20T19:43:42.943Z,21.35
2023-01-20T19:46:15.512Z,21.27
2023-01-20T19:48:43.134Z,20.70
2023-01-20T19:51:14.996Z,21.17
2023-01-20T19:53:43.168Z,20.98
2023-01-20T19:56:12.251Z,22.45
2023-01-20T19:58:39.988Z,19.92
2023-01-20T20:01:07.359Z,20.80
2023-01-20T20:03:35.953Z,20.95
2023-01-20T20:06:07.033Z,21.63
2023-01-20T20:08:36.289Z,21.92
2023-01-20T20:11:03.606Z,22.90
2023-01-20T20:13:30.913Z,20.65
2023-01-20T20:16:02.410Z,20.98
2023-01-20T20:18:29.862Z,20.48
2023-01-20T20:20:57.263Z,20.80
2023-01-20T20:23:24.685Z,20.70
2023-01-20T20:25:56.183Z,20.77
2023-01-20T20:28:27.131Z,20.35
2023-01-20T20:30:57.665Z,20.38
2023-01-20T20:33:25.104Z,20.85
2023-01-20T20:35:52.464Z,20.70
2023-01-20T20:38:19.860Z,20.17
2023-01-20T20:40:47.136Z,20.77
2023-01-20T20:43:14.518Z,21.17
2023-01-20T20:45:41.841Z,19.33
2023-01-20T20:48:10.729Z,19.63
2023-01-20T20:50:38.067Z,20.00
2023-01-20T20:53:05.387Z,20.58
2023-01-20T20:55:32.771Z,19.95
2023-01-20T20:58:00.089Z,19.90
2023-01-20T21:00:28.280Z,20.73
2023-01-20T21:02:55.765Z,19.90
2023-01-20T21:05:23.171Z,20.85
2023-01-20T21:07:50.592Z,20.60
2023-01-20T21:10:18.284Z,19.25
2023-01-20T21:12:46.712Z,20.90
2023-01-20T21:15:14.087Z,19.48
2023-01-20T21:17:41.414Z,19.15
2023-01-20T21:20:09.380Z,20.40
2023-01-20T21:22:36.839Z,19.40
2023-01-20T21:25:04.496Z,20.30
2023-01-20T21:27:33.005Z,20.00
2023-01-20T21:30:00.315Z,20.48
2023-01-20T21:32:27.621Z,19.40
2023-01-20T21:34:55.144Z,19.63
2023-01-20T21:37:22.467Z,19.55
2023-01-20T21:39:49.804Z,20.30
2023-01-20T21:42:17.163Z,18.38
2023-01-20T21:44:44.465Z,18.42
2023-01-20T21:47:11.875Z,19.10
2023-01-20T21:49:57.796Z,18.45
2023-01-20T21:52:44.098Z,18.65
2023-01-20T21:55:21.614Z,19.85
2023-01-20T21:57:51.169Z,18.80
2023-01-20T22:00:19.366Z,19.30
2023-01-20T22:02:46.946Z,18.58
2023-01-20T22:05:14.360Z,19.15
2023-01-20T22:07:41.696Z,20.23
2023-01-20T22:10:09.845Z,19.23
2023-01-20T22:12:37.449Z,19.35
2023-01-20T22:15:05.237Z,17.27
2023-01-20T22:17:32.683Z,18.55
2023-01-20T22:20:00.042Z,19.38
2023-01-20T22:22:27.397Z,20.55
2023-01-20T22:24:54.746Z,19.92
2023-01-20T22:27:22.209Z,19.55
2023-01-20T22:29:49.555Z,21.08
2023-01-20T22:32:16.883Z,20.55
2023-01-20T22:34:44.204Z,20.30
2023-01-20T22:37:11.525Z,21.27
2023-01-20T22:39:38.843Z,19.58
2023-01-20T22:42:06.692Z,20.23
2023-01-20T22:44:33.989Z,20.75
2023-01-20T22:47:01.556Z,19.65
2023-01-20T22:49:29.888Z,21.58
2023-01-20T22:51:57.187Z,20.10
2023-01-20T22:54:24.488Z,19.02
2023-01-20T22:56:51.822Z,19.85
2023-01-20T22:59:19.136Z,19.65
2023-01-20T23:01:46.494Z,20.10
2023-01-20T23:04:15.001Z,20.98
2023-01-20T23:06:42.327Z,19.55
2023-01-20T23:09:11.859Z,20.55
2023-01-20T23:11:40.137Z,20.90
2023-01-20T23:14:10.562Z,21.10
2023-01-20T23:16:38.150Z,19.88
2023-01-20T23:19:05.723Z,19.55
2023-01-20T23:21:33.058Z,20.30
2023-01-20T23:24:00.398Z,20.52
2023-01-20T23:26:29.501Z,20.63
2023-01-20T23:28:56.862Z,20.52
2023-01-20T23:31:25.137Z,21.23
2023-01-20T23:33:53.986Z,21.95
2023-01-20T23:36:25.421Z,20.15
2023-01-20T23:38:56.112Z,21.02
2023-01-20T23:41:23.679Z,21.15
2023-01-20T23:43:50.964Z,20.55
2023-01-20T23:46:18.287Z,18.45
2023-01-20T23:48:46.687Z,19.67
2023-01-20T23:51:14.112Z,20.60
2023-01-20T23:53:41.542Z,20.20
2023-01-20T23:56:12.028Z,20.65
2023-01-20T23:58:39.641Z,20.30
